createdAt,value
2022-10-07T00:01:12.539Z,3.33
2022-10-07T00:03:41.890Z,3.20
2022-10-07T00:06:14.665Z,3.00
2022-10-07T00:08:45.392Z,3.50
2022-10-07T00:11:16.448Z,3.87
2022-10-07T00:13:48.141Z,3.70
2022-10-07T00:16:20.132Z,4.07
2022-10-07T00:18:49.007Z,3.40
2022-10-07T00:21:19.164Z,3.47
2022-10-07T00:23:48.905Z,3.77
2022-10-07T00:26:21.673Z,3.57
2022-10-07T00:28:51.578Z,3.50
2022-10-07T00:31:22.389Z,3.90
2022-10-07T00:33:51.813Z,3.63
2022-10-07T00:36:23.660Z,3.63
2022-10-07T00:38:53.227Z,3.83
2022-10-07T00:41:24.829Z,4.23
2022-10-07T00:43:55.324Z,4.30
2022-10-07T00:46:31.565Z,4.30
2022-10-07T00:49:03.379Z,4.20
2022-10-07T00:51:33.322Z,4.33
2022-10-07T00:54:03.487Z,4.83
2022-10-07T00:56:32.381Z,4.83
2022-10-07T00:59:02.100Z,4.60
2022-10-07T01:01:31.236Z,4.53
2022-10-07T01:03:59.588Z,4.57
2022-10-07T01:06:27.767Z,4.50
2022-10-07T01:08:57.592Z,5.17
2022-10-07T01:11:42.405Z,4.60
2022-10-07T01:14:18.288Z,5.27
2022-10-07T01:16:55.608Z,4.60
2022-10-07T01:19:47.083Z,4.50
2022-10-07T01:22:29.195Z,5.13
2022-10-07T01:25:16.277Z,4.97
2022-10-07T01:27:51.983Z,4.87
2022-10-07T01:30:20.541Z,5.00
2022-10-07T01:32:54.980Z,5.43
2022-10-07T01:35:27.328Z,4.37
2022-10-07T01:38:00.201Z,4.97
2022-10-07T01:40:34.590Z,4.90
2022-10-07T01:43:04.352Z,5.03
2022-10-07T01:45:35.312Z,5.40
2022-10-07T01:48:04.130Z,4.83
2022-10-07T01:50:33.575Z,5.10
2022-10-07T01:53:17.953Z,4.83
2022-10-07T01:56:03.228Z,5.00
2022-10-07T01:58:49.757Z,4.63
2022-10-07T02:01:23.722Z,5.60
2022-10-07T02:04:12.794Z,4.80
2022-10-07T02:06:50.118Z,4.50
2022-10-07T02:09:29.732Z,4.87
2022-10-07T02:12:05.920Z,5.20
2022-10-07T02:14:41.517Z,5.30
2022-10-07T02:17:16.602Z,5.80
2022-10-07T02:19:48.674Z,5.00
2022-10-07T02:22:19.122Z,5.37
2022-10-07T02:24:49.265Z,4.73
2022-10-07T02:27:23.770Z,4.23
2022-10-07T02:29:57.372Z,4.77
2022-10-07T02:32:28.757Z,5.23
2022-10-07T02:35:03.230Z,4.40
2022-10-07T02:37:37.839Z,5.10
2022-10-07T02:40:12.226Z,4.87
2022-10-07T02:42:50.334Z,4.60
2022-10-07T02:45:27.103Z,4.23
2022-10-07T02:48:00.131Z,4.27
2022-10-07T02:50:38.338Z,4.83
2022-10-07T02:53:07.323Z,4.83
2022-10-07T02:55:36.226Z,4.77
2022-10-07T02:58:08.347Z,4.87
2022-10-07T03:00:40.918Z,4.70
2022-10-07T03:03:09.205Z,4.90
2022-10-07T03:05:38.085Z,4.70
2022-10-07T03:08:10.177Z,5.00
2022-10-07T03:10:39.249Z,4.93
2022-10-07T03:13:07.405Z,5.03
2022-10-07T03:15:42.042Z,4.60
2022-10-07T03:18:26.294Z,5.23
2022-10-07T03:20:56.053Z,5.33
2022-10-07T03:23:24.620Z,5.23
2022-10-07T03:25:53.513Z,5.00
2022-10-07T03:28:22.772Z,5.77
2022-10-07T03:30:53.299Z,5.57
2022-10-07T03:33:25.006Z,5.53
2022-10-07T03:35:53.939Z,5.10
2022-10-07T03:38:22.666Z,6.03
2022-10-07T03:40:50.875Z,5.70
2022-10-07T03:43:19.192Z,5.27
2022-10-07T03:45:52.605Z,5.67
2022-10-07T03:48:21.009Z,5.57
2022-10-07T03:50:52.337Z,5.77
2022-10-07T03:53:21.528Z,6.50
2022-10-07T03:55:49.682Z,5.73
2022-10-07T03:58:17.821Z,5.90
2022-10-07T04:00:45.941Z,5.70
2022-10-07T04:03:16.307Z,6.03
2022-10-07T04:05:45.257Z,6.23
2022-10-07T04:08:17.317Z,6.57
2022-10-07T04:10:45.578Z,5.87
2022-10-07T04:13:13.696Z,6.17
2022-10-07T04:15:41.796Z,6.57
2022-10-07T04:18:11.990Z,6.87
2022-10-07T04:20:41.776Z,5.40
2022-10-07T04:23:10.203Z,6.83
2022-10-07T04:25:38.535Z,5.23
2022-10-07T04:28:09.041Z,6.27
2022-10-07T04:30:43.693Z,5.90
2022-10-07T04:33:13.434Z,6.10
2022-10-07T04:35:44.185Z,6.13
2022-10-07T04:38:13.468Z,6.80
2022-10-07T04:40:43.053Z,5.70
2022-10-07T04:43:20.310Z,5.77
2022-10-07T04:45:49.735Z,6.07
2022-10-07T04:48:19.183Z,6.80
2022-10-07T04:50:51.867Z,6.33
2022-10-07T04:53:20.929Z,6.70
2022-10-07T04:55:51.893Z,6.37
2022-10-07T04:58:21.315Z,6.17
2022-10-07T05:00:51.696Z,6.70
2022-10-07T05:03:22.359Z,6.30
2022-10-07T05:05:54.809Z,6.40
2022-10-07T05:08:25.424Z,6.97
2022-10-07T05:10:56.568Z,6.40
2022-10-07T05:13:26.204Z,5.83
2022-10-07T05:15:56.334Z,6.53
2022-10-07T05:18:26.410Z,6.07
2022-10-07T05:20:56.686Z,6.17
2022-10-07T05:23:28.972Z,6.23
2022-10-07T05:26:04.488Z,5.70
2022-10-07T05:28:32.929Z,6.83
2022-10-07T05:31:06.819Z,8.13
2022-10-07T05:33:35.518Z,6.40
2022-10-07T05:36:06.401Z,6.30
2022-10-07T05:38:35.069Z,7.33
2022-10-07T05:41:05.365Z,6.70
2022-10-07T05:43:36.807Z,7.27
2022-10-07T05:46:08.671Z,6.60
2022-10-07T05:48:39.605Z,6.37
2022-10-07T05:51:09.720Z,8.37
2022-10-07T05:53:41.258Z,7.60
2022-10-07T05:56:12.636Z,7.27
2022-10-07T05:58:40.886Z,8.67
2022-10-07T06:01:15.118Z,7.67
2022-10-07T06:03:43.945Z,7.77
2022-10-07T06:06:13.480Z,7.63
2022-10-07T06:08:42.233Z,7.33
2022-10-07T06:11:31.917Z,7.27
2022-10-07T06:14:00.234Z,7.67
2022-10-07T06:16:28.770Z,7.60
2022-10-07T06:18:57.918Z,6.90
2022-10-07T06:21:28.691Z,7.40
2022-10-07T06:23:58.876Z,7.73
2022-10-07T06:26:26.982Z,8.57
2022-10-07T06:28:55.122Z,8.90
2022-10-07T06:31:25.561Z,7.73
2022-10-07T06:33:54.469Z,8.10
2022-10-07T06:36:23.429Z,7.93
2022-10-07T06:38:54.312Z,8.17
2022-10-07T06:41:23.875Z,8.13
2022-10-07T06:43:57.188Z,6.90
2022-10-07T06:46:25.367Z,7.77
2022-10-07T06:48:53.722Z,7.47
2022-10-07T06:51:23.272Z,7.17
2022-10-07T06:53:58.657Z,8.00
2022-10-07T06:56:27.018Z,7.77
2022-10-07T06:58:55.095Z,7.53
2022-10-07T07:01:23.432Z,7.73
2022-10-07T07:03:51.594Z,7.80
2022-10-07T07:06:19.691Z,7.10
2022-10-07T07:08:50.067Z,7.50
2022-10-07T07:11:40.426Z,7.40
2022-10-07T07:14:09.725Z,7.13
2022-10-07T07:16:38.019Z,6.27
2022-10-07T07:19:08.722Z,7.53
2022-10-07T07:21:40.784Z,6.70
2022-10-07T07:24:09.753Z,6.50
2022-10-07T07:26:40.442Z,7.10
2022-10-07T07:29:09.288Z,6.10
2022-10-07T07:31:38.242Z,6.40
2022-10-07T07:34:12.375Z,6.90
2022-10-07T07:36:47.766Z,6.50
2022-10-07T07:39:18.286Z,6.07
2022-10-07T07:41:50.781Z,6.40
2022-10-07T07:44:20.596Z,6.20
2022-10-07T07:46:51.355Z,6.30
2022-10-07T07:49:20.922Z,6.37
2022-10-07T07:51:49.359Z,6.00
2022-10-07T07:54:18.954Z,6.00
2022-10-07T07:56:48.505Z,5.43
2022-10-07T07:59:16.985Z,6.50
2022-10-07T08:01:45.558Z,5.83
2022-10-07T08:04:15.216Z,5.57
2022-10-07T08:06:43.613Z,5.40
2022-10-07T08:09:12.934Z,5.00
2022-10-07T08:11:45.486Z,5.30
2022-10-07T08:14:16.199Z,5.00
2022-10-07T08:16:45.097Z,5.23
2022-10-07T08:19:13.630Z,5.60
2022-10-07T08:21:42.200Z,4.63
2022-10-07T08:24:14.048Z,5.00
2022-10-07T08:26:42.634Z,4.63
2022-10-07T08:29:11.128Z,4.17
2022-10-07T08:31:42.432Z,4.73
2022-10-07T08:34:12.503Z,4.03
2022-10-07T08:36:43.157Z,4.10
2022-10-07T08:39:11.769Z,4.67
2022-10-07T08:41:54.253Z,3.83
2022-10-07T08:44:29.881Z,4.00
2022-10-07T08:47:07.467Z,3.27
2022-10-07T08:49:45.395Z,4.20
2022-10-07T08:52:39.013Z,3.50
2022-10-07T08:55:19.526Z,4.40
2022-10-07T08:58:14.654Z,3.77
2022-10-07T09:00:50.713Z,3.17
2022-10-07T09:03:35.897Z,3.30
2022-10-07T09:06:13.873Z,3.03
2022-10-07T09:08:48.153Z,4.23
2022-10-07T09:11:25.642Z,3.03
2022-10-07T09:14:00.960Z,3.10
2022-10-07T09:16:35.800Z,2.60
2022-10-07T09:19:06.428Z,3.03
2022-10-07T09:21:42.315Z,3.00
2022-10-07T09:24:21.455Z,3.40
2022-10-07T09:26:49.932Z,2.80
2022-10-07T09:29:21.391Z,3.30
2022-10-07T09:31:49.967Z,3.23
2022-10-07T09:34:25.116Z,3.67
2022-10-07T09:37:19.103Z,2.70
2022-10-07T09:39:50.266Z,2.80
2022-10-07T09:42:30.597Z,2.80
2022-10-07T09:45:02.950Z,3.27
2022-10-07T09:47:37.755Z,2.80
2022-10-07T09:50:37.004Z,3.17
2022-10-07T09:53:06.867Z,2.70
2022-10-07T09:55:42.299Z,2.57
2022-10-07T09:58:21.466Z,3.17
2022-10-07T10:00:52.518Z,2.70
2022-10-07T10:03:21.769Z,3.10
2022-10-07T10:05:58.534Z,2.60
2022-10-07T10:08:29.889Z,2.70
2022-10-07T10:10:59.825Z,2.90
2022-10-07T10:13:32.875Z,2.87
2022-10-07T10:16:02.250Z,3.13
2022-10-07T10:18:40.606Z,3.03
2022-10-07T10:21:27.419Z,2.60
2022-10-07T10:23:58.241Z,2.77
2022-10-07T10:26:55.911Z,3.17
2022-10-07T10:29:54.768Z,3.03
2022-10-07T10:32:59.620Z,2.43
2022-10-07T10:35:31.046Z,2.80
2022-10-07T10:38:19.204Z,2.67
2022-10-07T10:40:56.983Z,2.50
2022-10-07T10:43:37.326Z,2.47
2022-10-07T10:46:26.781Z,2.53
2022-10-07T10:49:06.895Z,2.20
2022-10-07T10:51:55.326Z,2.33
2022-10-07T10:54:33.857Z,2.00
2022-10-07T10:57:09.574Z,2.40
2022-10-07T11:00:02.787Z,2.47
2022-10-07T11:03:02.175Z,2.50
2022-10-07T11:05:35.251Z,2.00
2022-10-07T11:08:12.933Z,2.40
2022-10-07T11:10:49.789Z,2.50
2022-10-07T11:13:29.697Z,2.30
2022-10-07T11:16:05.974Z,2.43
2022-10-07T11:18:41.166Z,2.93
2022-10-07T11:21:16.461Z,2.17
2022-10-07T11:23:54.385Z,2.00
2022-10-07T11:26:33.869Z,2.03
2022-10-07T11:29:16.440Z,2.33
2022-10-07T11:31:53.491Z,2.30
2022-10-07T11:34:27.774Z,2.60
2022-10-07T11:37:03.180Z,2.27
2022-10-07T11:39:31.758Z,2.20
2022-10-07T11:42:07.612Z,2.27
2022-10-07T11:44:43.862Z,2.23
2022-10-07T11:47:16.844Z,2.50
2022-10-07T11:49:56.933Z,2.27
2022-10-07T11:52:28.452Z,2.20
2022-10-07T11:55:02.102Z,2.47
2022-10-07T11:57:35.671Z,2.50
2022-10-07T12:00:08.255Z,2.37
2022-10-07T12:02:46.240Z,2.07
2022-10-07T12:06:06.068Z,2.30
2022-10-07T12:08:39.017Z,2.50
2022-10-07T12:11:41.416Z,2.30
2022-10-07T12:14:36.648Z,2.00
2022-10-07T12:17:30.365Z,2.70
2022-10-07T12:20:45.220Z,2.30
2022-10-07T12:23:50.251Z,2.30
2022-10-07T12:26:52.377Z,2.37
2022-10-07T12:29:51.825Z,2.30
2022-10-07T12:32:57.296Z,1.90
2022-10-07T12:35:54.527Z,2.33
2022-10-07T12:38:29.323Z,2.27
2022-10-07T12:41:24.954Z,1.80
2022-10-07T12:44:01.132Z,1.90
2022-10-07T12:46:35.257Z,2.40
2022-10-07T12:49:14.426Z,2.30
2022-10-07T12:51:42.765Z,2.10
2022-10-07T12:54:20.141Z,1.80
2022-10-07T12:56:49.635Z,2.20
2022-10-07T12:59:54.060Z,2.10
2022-10-07T13:03:23.482Z,1.73
2022-10-07T13:06:35.879Z,1.90
2022-10-07T13:09:54.463Z,2.03
2022-10-07T13:12:36.354Z,1.80
2022-10-07T13:15:20.682Z,1.37
2022-10-07T13:17:56.976Z,2.17
2022-10-07T13:20:39.312Z,1.80
2022-10-07T13:23:16.263Z,1.87
2022-10-07T13:25:51.934Z,2.60
2022-10-07T13:28:23.579Z,1.40
2022-10-07T13:30:53.501Z,1.67
2022-10-07T13:33:30.359Z,1.50
2022-10-07T13:36:15.839Z,2.20
2022-10-07T13:38:46.268Z,1.73
2022-10-07T13:41:26.134Z,1.60
2022-10-07T13:43:59.923Z,1.50
2022-10-07T13:46:32.337Z,1.80
2022-10-07T13:49:03.860Z,1.70
2022-10-07T13:51:36.065Z,1.77
2022-10-07T13:54:07.848Z,2.00
2022-10-07T13:56:40.865Z,1.30
2022-10-07T13:59:18.391Z,1.87
2022-10-07T14:01:49.808Z,1.80
2022-10-07T14:04:31.377Z,1.50
2022-10-07T14:07:13.733Z,2.00
2022-10-07T14:09:48.281Z,2.00
2022-10-07T14:12:21.201Z,1.80
2022-10-07T14:14:52.172Z,1.80
2022-10-07T14:17:28.349Z,1.83
2022-10-07T14:20:05.791Z,1.50
2022-10-07T14:22:39.047Z,2.03
2022-10-07T14:25:19.097Z,1.90
2022-10-07T14:28:07.764Z,2.83
2022-10-07T14:30:56.957Z,1.77
2022-10-07T14:34:00.321Z,2.20
2022-10-07T14:36:30.122Z,2.17
2022-10-07T14:39:03.936Z,2.23
2022-10-07T14:41:33.466Z,1.83
2022-10-07T14:44:04.246Z,2.00
2022-10-07T14:46:32.529Z,1.87
2022-10-07T14:49:01.150Z,2.30
2022-10-07T14:51:31.124Z,2.17
2022-10-07T14:54:05.098Z,1.87
2022-10-07T14:56:38.167Z,2.23
2022-10-07T14:59:10.912Z,2.27
2022-10-07T15:01:39.217Z,2.20
2022-10-07T15:04:07.573Z,1.63
2022-10-07T15:06:37.970Z,2.40
2022-10-07T15:09:06.299Z,1.93
2022-10-07T15:11:35.801Z,1.87
2022-10-07T15:14:04.007Z,2.33
2022-10-07T15:16:32.396Z,2.60
2022-10-07T15:19:02.069Z,2.13
2022-10-07T15:21:30.668Z,2.40
2022-10-07T15:24:01.694Z,2.10
2022-10-07T15:26:31.106Z,1.80
2022-10-07T15:29:00.664Z,1.60
2022-10-07T15:31:30.620Z,2.00
2022-10-07T15:33:58.923Z,2.20
2022-10-07T15:36:29.702Z,2.17
2022-10-07T15:39:02.074Z,2.00
2022-10-07T15:41:34.018Z,2.10
2022-10-07T15:44:05.545Z,2.33
2022-10-07T15:46:33.896Z,1.93
2022-10-07T15:49:04.113Z,2.57
2022-10-07T15:51:32.928Z,2.87
2022-10-07T15:54:02.688Z,2.23
2022-10-07T15:56:30.973Z,2.17
2022-10-07T15:59:00.478Z,2.30
2022-10-07T16:01:31.553Z,2.50
2022-10-07T16:04:01.607Z,2.30
2022-10-07T16:06:32.711Z,2.33
2022-10-07T16:09:02.717Z,2.60
2022-10-07T16:11:33.209Z,2.50
2022-10-07T16:14:02.411Z,2.33
2022-10-07T16:16:32.455Z,2.53
2022-10-07T16:19:01.631Z,2.80
2022-10-07T16:21:31.872Z,2.40
2022-10-07T16:24:04.773Z,2.50
2022-10-07T16:26:35.861Z,2.63
2022-10-07T16:29:23.972Z,2.40
2022-10-07T16:31:58.038Z,2.30
2022-10-07T16:34:28.345Z,2.13
2022-10-07T16:36:58.296Z,2.30
2022-10-07T16:39:28.013Z,2.60
2022-10-07T16:41:56.608Z,2.37
2022-10-07T16:44:25.677Z,2.37
2022-10-07T16:46:56.754Z,2.77
2022-10-07T16:49:27.414Z,2.70
2022-10-07T16:51:56.389Z,2.93
2022-10-07T16:54:24.608Z,2.83
2022-10-07T16:56:54.439Z,2.60
2022-10-07T16:59:24.728Z,2.70
2022-10-07T17:01:55.905Z,3.10
2022-10-07T17:04:25.593Z,2.90
2022-10-07T17:06:54.409Z,2.73
2022-10-07T17:09:24.644Z,3.13
2022-10-07T17:11:54.262Z,3.43
2022-10-07T17:14:24.207Z,2.80
2022-10-07T17:16:57.635Z,3.37
2022-10-07T17:19:28.492Z,2.87
2022-10-07T17:21:58.503Z,2.90
2022-10-07T17:24:26.787Z,3.00
2022-10-07T17:26:56.853Z,2.93
2022-10-07T17:29:26.868Z,2.73
2022-10-07T17:31:55.098Z,2.73
2022-10-07T17:34:23.861Z,3.03
2022-10-07T17:36:52.420Z,3.23
2022-10-07T17:39:20.851Z,3.57
2022-10-07T17:41:51.699Z,3.50
2022-10-07T17:44:21.522Z,3.07
2022-10-07T17:46:50.291Z,3.13
2022-10-07T17:49:18.685Z,3.07
2022-10-07T17:51:46.833Z,3.20
2022-10-07T17:54:15.417Z,3.50
2022-10-07T17:56:47.655Z,3.37
2022-10-07T17:59:16.083Z,3.70
2022-10-07T18:01:45.774Z,3.33
2022-10-07T18:04:18.979Z,3.60
2022-10-07T18:06:50.515Z,4.20
2022-10-07T18:09:19.308Z,3.53
2022-10-07T18:12:04.951Z,3.90
2022-10-07T18:14:53.758Z,3.80
2022-10-07T18:17:24.501Z,3.17
2022-10-07T18:19:52.910Z,3.60
2022-10-07T18:22:21.425Z,4.00
2022-10-07T18:24:49.811Z,4.33
2022-10-07T18:27:18.048Z,3.53
2022-10-07T18:29:46.212Z,3.43
2022-10-07T18:32:14.355Z,3.47
2022-10-07T18:34:43.962Z,3.20
2022-10-07T18:37:12.146Z,3.63
2022-10-07T18:39:40.871Z,4.00
2022-10-07T18:42:09.151Z,3.80
2022-10-07T18:44:37.284Z,3.80
2022-10-07T18:47:05.816Z,3.80
2022-10-07T18:49:34.018Z,2.93
2022-10-07T18:52:07.376Z,3.37
2022-10-07T18:54:35.915Z,3.17
2022-10-07T18:57:04.364Z,3.37
2022-10-07T18:59:32.582Z,3.20
2022-10-07T19:02:00.885Z,3.30
2022-10-07T19:04:30.908Z,3.37
2022-10-07T19:06:59.124Z,3.20
2022-10-07T19:09:30.043Z,3.30
2022-10-07T19:12:00.906Z,3.70
2022-10-07T19:14:31.096Z,3.93
2022-10-07T19:16:59.295Z,2.93
2022-10-07T19:19:27.408Z,3.20
2022-10-07T19:21:57.005Z,3.07
2022-10-07T19:24:45.475Z,3.83
2022-10-07T19:27:14.935Z,3.23
2022-10-07T19:29:43.152Z,3.10
2022-10-07T19:32:11.377Z,3.17
2022-10-07T19:34:39.600Z,3.50
2022-10-07T19:37:08.054Z,4.20
2022-10-07T19:39:36.867Z,3.60
2022-10-07T19:42:05.456Z,3.40
2022-10-07T19:44:35.087Z,2.90
2022-10-07T19:47:04.051Z,3.33
2022-10-07T19:49:33.337Z,3.43
2022-10-07T19:52:01.675Z,3.07
2022-10-07T19:54:35.665Z,2.93
2022-10-07T19:57:04.128Z,3.03
2022-10-07T19:59:32.240Z,2.90
2022-10-07T20:02:01.827Z,2.83
2022-10-07T20:04:30.943Z,2.60
2022-10-07T20:06:59.191Z,3.40
2022-10-07T20:09:27.329Z,3.33
2022-10-07T20:11:55.903Z,3.70
2022-10-07T20:14:24.010Z,3.57
2022-10-07T20:16:52.157Z,3.40
2022-10-07T20:19:21.744Z,2.97
2022-10-07T20:21:50.913Z,3.20
2022-10-07T20:24:18.993Z,3.20
2022-10-07T20:26:47.118Z,2.93
2022-10-07T20:29:16.597Z,3.10
2022-10-07T20:31:46.211Z,3.27
2022-10-07T20:34:20.029Z,3.83
2022-10-07T20:36:50.520Z,3.50
2022-10-07T20:39:38.402Z,3.13
2022-10-07T20:42:25.609Z,3.87
2022-10-07T20:44:54.224Z,3.40
2022-10-07T20:47:23.821Z,3.30
2022-10-07T20:49:51.958Z,3.53
2022-10-07T20:52:24.383Z,3.23
2022-10-07T20:54:54.187Z,3.50
2022-10-07T20:57:25.153Z,3.30
2022-10-07T20:59:53.463Z,3.27
2022-10-07T21:02:24.340Z,3.80
2022-10-07T21:04:53.241Z,3.37
2022-10-07T21:07:22.741Z,3.57
2022-10-07T21:09:51.792Z,3.57
2022-10-07T21:12:20.101Z,3.00
2022-10-07T21:14:48.612Z,3.50
2022-10-07T21:17:17.584Z,3.40
2022-10-07T21:19:45.733Z,3.53
2022-10-07T21:22:13.897Z,3.70
2022-10-07T21:24:43.327Z,3.93
2022-10-07T21:27:11.594Z,3.87
2022-10-07T21:29:41.252Z,4.10
2022-10-07T21:32:10.708Z,3.63
2022-10-07T21:34:39.475Z,3.40
2022-10-07T21:37:07.895Z,3.70
2022-10-07T21:39:36.081Z,3.73
2022-10-07T21:42:05.818Z,3.30
2022-10-07T21:44:34.781Z,3.73
2022-10-07T21:47:04.824Z,3.83
2022-10-07T21:49:32.971Z,3.63
2022-10-07T21:52:01.033Z,3.47
2022-10-07T21:54:30.274Z,3.63
2022-10-07T21:56:58.412Z,3.63
2022-10-07T21:59:28.070Z,3.30
2022-10-07T22:01:56.260Z,3.73
2022-10-07T22:04:24.887Z,3.67
2022-10-07T22:07:10.947Z,4.23
2022-10-07T22:09:39.037Z,4.00
2022-10-07T22:12:07.944Z,4.20
2022-10-07T22:14:38.352Z,4.00
2022-10-07T22:17:06.532Z,3.70
2022-10-07T22:19:34.776Z,3.87
2022-10-07T22:22:02.920Z,3.77
2022-10-07T22:24:31.097Z,3.80
2022-10-07T22:27:00.170Z,3.50
2022-10-07T22:29:29.684Z,3.47
2022-10-07T22:31:59.188Z,3.70
2022-10-07T22:34:44.974Z,3.47
2022-10-07T22:37:13.696Z,3.17
2022-10-07T22:39:42.166Z,3.17
2022-10-07T22:42:10.440Z,3.10
2022-10-07T22:44:39.381Z,3.50
2022-10-07T22:47:09.094Z,3.50
2022-10-07T22:49:37.164Z,3.47
2022-10-07T22:52:05.289Z,3.37
2022-10-07T22:54:33.484Z,3.50
2022-10-07T22:57:01.649Z,3.03
2022-10-07T22:59:29.810Z,3.70
2022-10-07T23:01:57.984Z,3.00
2022-10-07T23:04:27.470Z,2.73
2022-10-07T23:06:55.589Z,2.87
2022-10-07T23:09:23.753Z,2.90
2022-10-07T23:11:51.896Z,2.87
2022-10-07T23:14:20.074Z,3.00
2022-10-07T23:16:48.259Z,2.93
2022-10-07T23:19:16.355Z,3.03
2022-10-07T23:21:46.129Z,3.27
2022-10-07T23:24:14.414Z,3.60
2022-10-07T23:26:46.054Z,3.07
2022-10-07T23:29:14.798Z,3.07
2022-10-07T23:31:44.771Z,2.70
2022-10-07T23:34:13.842Z,2.67
2022-10-07T23:36:41.980Z,2.83
2022-10-07T23:39:11.784Z,3.90
2022-10-07T23:41:40.760Z,3.03
2022-10-07T23:44:08.912Z,3.10
2022-10-07T23:46:37.067Z,3.33
2022-10-07T23:49:05.948Z,3.10
2022-10-07T23:51:34.903Z,2.97
2022-10-07T23:54:05.057Z,3.43
2022-10-07T23:56:34.819Z,3.00
2022-10-07T23:59:03.885Z,3.43
